Time;durP1;ratioP1;P1;durP2;ratioP2;P2;SDS_P1;SDS_P2;PMS_P1;PMS_P2;Temp;Humidity;BMP_temperature;BMP_pressure;BME280_temperature;BME280_humidity;BME280_pressure;Samples;Min_cycle;Max_cycle;Signal;HPM_P1;HPM_P2
2021/05/06 00:08:20;;;;;;;2.35;1.92;;;4.60;99.90;;;;;;5020594;28;20037;-70
2021/05/06 00:30:11;;;;;;;2.30;1.70;;;4.60;99.90;;;;;;5028169;28;20075;-71
2021/05/06 00:32:38;;;;;;;1.85;1.73;;;4.50;99.90;;;;;;5008221;28;20021;-71
2021/05/06 00:35:05;;;;;;;2.75;1.83;;;4.30;99.90;;;;;;5020923;28;20391;-74
2021/05/06 00:37:39;;;;;;;2.03;1.92;;;4.40;99.90;;;;;;5022813;28;20478;-72
2021/05/06 00:40:08;;;;;;;2.35;2.00;;;4.50;99.90;;;;;;5027924;28;20025;-68
2021/05/06 00:56:15;;;;;;;4.22;2.40;;;4.30;99.90;;;;;;5013799;28;20045;-70
2021/05/06 01:06:32;;;;;;;2.25;2.10;;;4.40;99.90;;;;;;5014076;28;20164;-73
2021/05/06 01:09:03;;;;;;;2.60;2.40;;;4.40;99.90;;;;;;5013883;28;20025;-70
2021/05/06 01:11:37;;;;;;;2.75;2.55;;;4.40;99.90;;;;;;5026243;28;20539;-70
2021/05/06 01:14:04;;;;;;;2.83;2.47;;;4.30;99.90;;;;;;5033395;28;20126;-69
2021/05/06 01:16:30;;;;;;;2.97;2.70;;;4.30;99.90;;;;;;5033660;28;20567;-72
2021/05/06 01:18:56;;;;;;;3.08;2.78;;;4.40;99.90;;;;;;5015766;28;20022;-74
2021/05/06 01:21:21;;;;;;;3.92;2.88;;;4.30;99.90;;;;;;5015585;28;20013;-72
2021/05/06 01:23:48;;;;;;;3.10;2.80;;;4.30;99.90;;;;;;5032369;28;20498;-70
2021/05/06 01:26:29;;;;;;;3.20;2.90;;;4.20;99.90;;;;;;5033532;28;20052;-71
2021/05/06 01:28:57;;;;;;;4.50;4.10;;;4.10;99.90;;;;;;5015687;28;20048;-71
2021/05/06 01:31:26;;;;;;;5.13;3.55;;;4.00;99.90;;;;;;5033411;28;20106;-72
2021/05/06 01:36:52;;;;;;;4.03;3.10;;;4.10;99.90;;;;;;4987808;28;20037;-71
2021/05/06 01:42:19;;;;;;;3.92;3.53;;;4.10;99.90;;;;;;5013395;28;20037;-71
2021/05/06 01:47:34;;;;;;;3.78;3.40;;;4.10;99.90;;;;;;5014912;28;20034;-72
2021/05/06 01:58:30;;;;;;;5.63;4.35;;;4.10;99.90;;;;;;5013092;28;20061;-72
2021/05/06 02:01:06;;;;;;;4.32;3.80;;;4.10;99.90;;;;;;4988707;28;20033;-71
2021/05/06 02:03:32;;;;;;;4.50;4.10;;;4.20;99.90;;;;;;5032537;28;20035;-71
2021/05/06 02:05:58;;;;;;;5.95;4.50;;;4.30;99.90;;;;;;5032706;28;20053;-71
2021/05/06 02:08:24;;;;;;;4.50;4.10;;;4.10;99.90;;;;;;5032568;28;20064;-72
2021/05/06 02:10:51;;;;;;;4.72;4.13;;;4.10;99.90;;;;;;5012988;28;20463;-70
2021/05/06 02:13:16;;;;;;;5.13;4.28;;;4.20;99.90;;;;;;4995179;28;20026;-70
2021/05/06 02:15:50;;;;;;;5.80;4.15;;;4.10;99.90;;;;;;5012392;28;20022;-71
2021/05/06 02:18:16;;;;;;;4.60;4.20;;;4.10;99.90;;;;;;5012632;28;20018;-72
2021/05/06 02:20:42;;;;;;;5.85;4.60;;;4.10;99.90;;;;;;5012795;28;20026;-71
2021/05/06 02:23:08;;;;;;;5.18;4.63;;;4.30;99.90;;;;;;4995531;28;20028;-72
2021/05/06 02:25:34;;;;;;;6.07;4.30;;;4.20;99.90;;;;;;5032175;28;20029;-72
2021/05/06 02:27:59;;;;;;;6.00;4.35;;;4.20;99.90;;;;;;5032242;28;20025;-72
2021/05/06 02:30:25;;;;;;;5.75;4.38;;;4.10;99.90;;;;;;5032032;28;20057;-72
2021/05/06 02:32:51;;;;;;;5.57;4.15;;;4.10;99.90;;;;;;5032165;28;20020;-70
2021/05/06 02:35:16;;;;;;;5.50;4.22;;;4.10;99.90;;;;;;5031493;28;20021;-70
2021/05/06 02:37:43;;;;;;;5.28;4.15;;;4.10;99.90;;;;;;5032067;28;20032;-73
2021/05/06 02:40:09;;;;;;;5.38;4.45;;;4.20;99.90;;;;;;5032361;28;20056;-70
2021/05/06 02:42:34;;;;;;;5.30;4.40;;;4.10;99.90;;;;;;5031986;28;20033;-71
2021/05/06 02:45:00;;;;;;;6.95;4.10;;;4.10;99.90;;;;;;5000951;28;20025;-71
2021/05/06 02:47:27;;;;;;;4.60;3.95;;;4.00;99.90;;;;;;5019481;28;20034;-71
2021/05/06 02:49:52;;;;;;;7.43;4.20;;;4.00;99.90;;;;;;5004666;28;20022;-72
2021/05/06 02:52:41;;;;;;;4.88;4.07;;;4.10;99.90;;;;;;5019897;28;20052;-71
2021/05/06 02:58:05;;;;;;;5.35;4.20;;;4.10;99.90;;;;;;4995908;28;20041;-71
2021/05/06 03:03:15;;;;;;;4.82;4.00;;;4.10;99.90;;;;;;5031901;28;20028;-71
2021/05/06 03:05:40;;;;;;;4.43;3.65;;;4.00;99.90;;;;;;5031506;28;20017;-71
2021/05/06 03:13:15;;;;;;;5.15;4.13;;;4.20;99.90;;;;;;5012037;28;20096;-72
2021/05/06 03:23:54;;;;;;;5.72;4.10;;;4.20;99.90;;;;;;5031673;28;20037;-72
2021/05/06 03:26:19;;;;;;;5.63;4.40;;;4.30;99.90;;;;;;5013687;28;20053;-70
2021/05/06 03:29:08;;;;;;;4.72;3.95;;;4.30;99.90;;;;;;5031472;28;20643;-72
2021/05/06 03:42:26;;;;;;;5.30;4.05;;;4.30;99.90;;;;;;5024472;28;20557;-70
2021/05/06 03:45:22;;;;;;;5.63;3.90;;;4.30;99.90;;;;;;5005601;28;20064;-70
2021/05/06 03:48:27;;;;;;;6.80;4.85;;;4.30;99.90;;;;;;5017812;28;20022;-70
2021/05/06 04:13:10;;;;;;;6.63;4.13;;;4.50;99.90;;;;;;5015307;28;20462;-72
2021/05/06 04:25:46;;;;;;;4.90;4.38;;;4.50;99.90;;;;;;5014929;28;20476;-72
2021/05/06 04:36:54;;;;;;;5.78;3.75;;;4.50;99.90;;;;;;5014432;28;20119;-71
2021/05/06 04:38:59;;;;;;;5.93;4.43;;;4.60;99.90;;;;;;5008510;28;20029;-71
2021/05/06 04:55:31;;;;;;;5.82;4.05;;;4.80;99.90;;;;;;5014028;28;20088;-71
2021/05/06 05:06:00;;;;;;;6.57;4.15;;;5.10;99.90;;;;;;5001422;28;20030;-72
2021/05/06 05:08:29;;;;;;;7.70;4.25;;;5.10;99.90;;;;;;5027320;28;20021;-72
2021/05/06 05:18:54;;;;;;;5.70;3.97;;;5.00;99.90;;;;;;5014537;28;20025;-72
2021/05/06 05:24:16;;;;;;;8.93;5.80;;;5.30;99.90;;;;;;4965464;28;20041;-72
2021/05/06 05:26:41;;;;;;;7.78;5.28;;;5.40;99.90;;;;;;4998806;28;20021;-71
2021/05/06 05:29:07;;;;;;;7.65;4.18;;;5.70;99.90;;;;;;5033897;28;20026;-71
2021/05/06 05:31:33;;;;;;;6.22;4.05;;;5.80;99.90;;;;;;5002311;28;20385;-71
2021/05/06 05:34:35;;;;;;;7.93;3.95;;;5.90;99.90;;;;;;5024648;28;20101;-71
2021/05/06 05:36:53;;;;;;;5.00;3.20;;;6.00;99.90;;;;;;5025679;28;20073;-71
2021/05/06 05:42:06;;;;;;;5.75;3.60;;;6.00;99.90;;;;;;5008026;28;20030;-72
2021/05/06 05:55:04;;;;;;;19.05;17.08;;;5.80;99.90;;;;;;5022856;28;20108;-72
2021/05/06 05:57:29;;;;;;;15.55;14.30;;;5.90;99.90;;;;;;5026673;28;20018;-72
2021/05/06 05:59:55;;;;;;;9.65;6.75;;;5.90;99.90;;;;;;5013141;28;20029;-71
2021/05/06 06:02:20;;;;;;;6.68;5.05;;;5.90;99.90;;;;;;4995444;28;20022;-71
2021/05/06 06:04:46;;;;;;;6.75;4.93;;;6.00;99.90;;;;;;5012930;28;20112;-71
2021/05/06 06:07:11;;;;;;;15.95;5.47;;;6.10;99.90;;;;;;5012841;28;20034;-72
2021/05/06 06:09:37;;;;;;;10.68;9.57;;;6.00;99.90;;;;;;5012418;28;20061;-70
2021/05/06 06:12:03;;;;;;;6.45;3.83;;;6.10;99.90;;;;;;5026115;28;20462;-71
2021/05/06 06:14:37;;;;;;;8.73;3.60;;;6.20;99.90;;;;;;4994876;28;20030;-72
2021/05/06 06:17:03;;;;;;;6.53;4.47;;;6.30;99.90;;;;;;5012902;28;20014;-72
2021/05/06 06:19:34;;;;;;;10.40;4.20;;;6.40;99.90;;;;;;4995290;28;20024;-71
2021/05/06 06:22:04;;;;;;;4.53;3.28;;;6.50;99.90;;;;;;5030531;28;20036;-71
2021/05/06 06:24:29;;;;;;;4.55;3.47;;;6.50;99.90;;;;;;5032184;28;20025;-71
2021/05/06 06:26:55;;;;;;;7.05;3.53;;;6.50;99.90;;;;;;5027474;28;20109;-70
2021/05/06 06:29:27;;;;;;;4.90;3.60;;;6.70;99.90;;;;;;5012816;28;20396;-71
2021/05/06 06:31:52;;;;;;;5.28;3.45;;;6.70;99.90;;;;;;5012673;28;20030;-71
2021/05/06 06:34:18;;;;;;;4.13;2.95;;;6.70;99.90;;;;;;5003482;28;20077;-72
2021/05/06 06:36:44;;;;;;;5.50;3.35;;;6.60;99.90;;;;;;5018369;28;20033;-72
2021/05/06 06:39:11;;;;;;;5.13;3.30;;;6.70;99.90;;;;;;5032410;28;20083;-72
2021/05/06 06:41:37;;;;;;;6.25;3.42;;;6.60;99.90;;;;;;5031993;28;20018;-71
2021/05/06 06:44:03;;;;;;;5.30;3.00;;;6.50;99.90;;;;;;5032016;28;20408;-72
2021/05/06 06:46:28;;;;;;;4.47;2.90;;;6.40;99.90;;;;;;5026408;28;20611;-70
2021/05/06 06:48:54;;;;;;;5.07;3.08;;;6.40;99.90;;;;;;5016090;28;20056;-72
2021/05/06 06:51:20;;;;;;;6.63;4.07;;;6.50;99.90;;;;;;5025267;28;20036;-72
2021/05/06 06:53:45;;;;;;;5.75;3.33;;;6.40;99.90;;;;;;5001388;28;20113;-72
2021/05/06 06:56:11;;;;;;;6.03;2.90;;;6.50;99.90;;;;;;5012408;28;20112;-73
2021/05/06 06:58:40;;;;;;;4.70;2.83;;;6.40;99.90;;;;;;5012687;28;20160;-72
2021/05/06 07:01:07;;;;;;;7.47;3.30;;;6.50;99.90;;;;;;5006104;28;20108;-72
2021/05/06 07:03:34;;;;;;;7.05;3.15;;;6.30;99.90;;;;;;5001031;28;20026;-70
2021/05/06 07:06:00;;;;;;;4.40;2.60;;;6.40;99.90;;;;;;4988847;28;20037;-71
2021/05/06 07:08:29;;;;;;;5.65;3.10;;;6.40;99.90;;;;;;5019108;28;20498;-72
2021/05/06 07:10:57;;;;;;;6.05;3.08;;;6.30;99.90;;;;;;5006779;28;20636;-70
2021/05/06 07:13:24;;;;;;;6.18;2.90;;;6.30;99.90;;;;;;5026059;28;20044;-71
2021/05/06 07:15:52;;;;;;;5.20;3.00;;;6.20;99.90;;;;;;5012388;28;20034;-70
2021/05/06 07:18:18;;;;;;;6.30;3.58;;;6.10;99.90;;;;;;5012250;28;20663;-71
2021/05/06 07:20:45;;;;;;;4.22;2.80;;;6.10;99.90;;;;;;5001062;28;20022;-71
2021/05/06 07:23:12;;;;;;;3.53;2.67;;;6.20;99.90;;;;;;5025901;28;20480;-71
2021/05/06 07:25:38;;;;;;;5.72;3.22;;;6.10;99.90;;;;;;5035820;28;20025;-71
2021/05/06 07:28:12;;;;;;;5.80;2.95;;;5.90;99.90;;;;;;5018240;28;20064;-71
2021/05/06 07:30:37;;;;;;;5.80;3.28;;;5.90;99.90;;;;;;5036184;28;20121;-71
2021/05/06 07:33:03;;;;;;;4.80;2.83;;;5.80;99.90;;;;;;5035872;28;20060;-71
2021/05/06 07:35:31;;;;;;;5.30;2.63;;;5.70;99.90;;;;;;5035479;28;20025;-72
2021/05/06 07:37:56;;;;;;;6.95;2.90;;;5.70;99.90;;;;;;5035680;28;20083;-72
2021/05/06 07:40:22;;;;;;;3.78;2.53;;;5.60;99.90;;;;;;5035741;28;20116;-73
2021/05/06 07:42:48;;;;;;;4.25;3.10;;;5.60;99.90;;;;;;5035609;28;20030;-72
2021/05/06 07:45:13;;;;;;;3.40;2.35;;;5.40;99.90;;;;;;5017580;28;20038;-72
2021/05/06 07:47:39;;;;;;;5.65;2.53;;;5.30;99.90;;;;;;5035396;28;20052;-72
2021/05/06 07:50:05;;;;;;;4.97;2.80;;;5.10;99.90;;;;;;5025982;28;20509;-71
2021/05/06 07:52:31;;;;;;;7.85;2.97;;;5.10;99.90;;;;;;5015379;28;20105;-72
2021/05/06 07:54:57;;;;;;;3.90;2.85;;;5.10;99.90;;;;;;4997643;28;20026;-72
2021/05/06 07:57:24;;;;;;;4.85;2.88;;;5.10;99.90;;;;;;5015281;28;20025;-71
2021/05/06 07:59:50;;;;;;;3.90;3.00;;;5.00;99.90;;;;;;5015277;28;20022;-72
2021/05/06 08:02:16;;;;;;;6.10;3.30;;;5.10;99.90;;;;;;5015371;28;20022;-72
2021/05/06 08:04:42;;;;;;;5.07;3.50;;;5.00;99.90;;;;;;5024777;28;20108;-70
2021/05/06 08:07:07;;;;;;;5.80;3.42;;;5.00;99.90;;;;;;5021845;28;20139;-71
2021/05/06 08:09:33;;;;;;;11.90;3.60;;;5.00;99.90;;;;;;5008075;28;20117;-72
2021/05/06 08:12:01;;;;;;;4.65;3.22;;;4.90;99.90;;;;;;5028514;28;20400;-71
2021/05/06 08:14:27;;;;;;;6.63;4.10;;;4.80;99.90;;;;;;4997629;28;20033;-72
2021/05/06 08:16:52;;;;;;;6.57;3.95;;;4.90;99.90;;;;;;5015231;28;20481;-71
2021/05/06 08:19:18;;;;;;;5.68;3.50;;;5.00;99.90;;;;;;5015108;28;20014;-70
2021/05/06 08:21:45;;;;;;;5.78;3.75;;;5.00;99.90;;;;;;5015279;28;20037;-70
2021/05/06 08:24:10;;;;;;;6.35;4.07;;;4.90;99.90;;;;;;5014655;28;20026;-71
2021/05/06 08:26:36;;;;;;;5.65;3.85;;;4.90;99.90;;;;;;5014819;28;20025;-71
2021/05/06 08:29:02;;;;;;;8.73;3.92;;;4.80;99.90;;;;;;5003525;28;20026;-71
2021/05/06 08:31:28;;;;;;;6.22;4.22;;;4.90;99.90;;;;;;5030101;28;20087;-71
2021/05/06 08:33:53;;;;;;;6.38;4.22;;;4.90;99.90;;;;;;5016665;28;20053;-71
2021/05/06 08:36:19;;;;;;;6.53;4.43;;;4.80;99.90;;;;;;5014351;28;20045;-69
2021/05/06 08:38:44;;;;;;;6.60;4.13;;;5.10;99.90;;;;;;4997582;28;20006;-71
2021/05/06 08:41:10;;;;;;;6.65;3.85;;;5.10;99.90;;;;;;5014574;28;20468;-70
2021/05/06 08:43:38;;;;;;;7.20;4.50;;;5.10;99.90;;;;;;4996846;28;20030;-70
2021/05/06 08:46:04;;;;;;;6.63;4.50;;;5.10;99.90;;;;;;5014573;28;20057;-70
2021/05/06 08:48:31;;;;;;;6.00;3.75;;;5.00;99.90;;;;;;5014684;28;20076;-70
2021/05/06 08:50:58;;;;;;;5.45;3.70;;;5.10;99.90;;;;;;5004130;28;20045;-70
2021/05/06 08:53:24;;;;;;;6.07;3.67;;;4.90;99.90;;;;;;5016531;28;20075;-70
2021/05/06 08:55:53;;;;;;;5.38;4.05;;;4.90;99.90;;;;;;5032210;28;20518;-70
2021/05/06 08:58:20;;;;;;;6.25;4.20;;;4.90;99.90;;;;;;5014519;28;20026;-70
2021/05/06 09:00:45;;;;;;;5.60;4.05;;;4.80;99.90;;;;;;5014374;28;20049;-70
2021/05/06 09:03:12;;;;;;;7.95;3.72;;;4.80;99.90;;;;;;4996916;28;20049;-70
2021/05/06 09:06:15;;;;;;;4.20;3.60;;;4.90;99.90;;;;;;5027609;28;20033;-70
2021/05/06 09:08:43;;;;;;;4.88;3.72;;;4.90;99.90;;;;;;4998581;28;20037;-70
2021/05/06 09:11:09;;;;;;;4.63;3.42;;;4.70;99.90;;;;;;5007465;28;20042;-70
2021/05/06 09:13:35;;;;;;;4.65;3.40;;;4.60;99.90;;;;;;5016037;28;20029;-71
2021/05/06 09:16:03;;;;;;;5.47;3.38;;;4.60;99.90;;;;;;5007855;28;20084;-72
2021/05/06 09:18:45;;;;;;;5.15;3.15;;;4.60;99.90;;;;;;5029449;28;20032;-71
2021/05/06 09:21:31;;;;;;;5.38;3.35;;;4.70;99.90;;;;;;5033748;28;20096;-71
2021/05/06 09:24:19;;;;;;;5.05;3.47;;;4.70;99.90;;;;;;5015994;28;20029;-71
2021/05/06 09:26:45;;;;;;;6.13;3.78;;;4.70;99.90;;;;;;4999592;28;20058;-71
2021/05/06 09:29:27;;;;;;;3.88;3.38;;;4.70;99.90;;;;;;4996394;28;20045;-71
2021/05/06 09:31:52;;;;;;;5.18;3.92;;;4.70;99.90;;;;;;5019577;28;20025;-71
2021/05/06 09:34:17;;;;;;;4.10;3.10;;;4.60;99.90;;;;;;5033332;28;20029;-71
2021/05/06 09:36:44;;;;;;;6.47;3.42;;;4.80;99.90;;;;;;5028080;28;20033;-71
2021/05/06 09:39:10;;;;;;;4.43;3.50;;;4.80;99.90;;;;;;5013875;28;20022;-70
2021/05/06 09:41:37;;;;;;;4.70;4.00;;;4.90;99.90;;;;;;5032498;28;20419;-70
2021/05/06 09:44:14;;;;;;;5.68;5.07;;;5.10;99.90;;;;;;5032272;28;20018;-70
2021/05/06 09:46:43;;;;;;;5.63;4.07;;;5.20;99.90;;;;;;5015808;28;20472;-70
2021/05/06 09:49:10;;;;;;;6.40;3.78;;;5.00;99.90;;;;;;5031767;28;20041;-71
2021/05/06 09:51:36;;;;;;;4.50;3.60;;;4.90;99.90;;;;;;4996034;28;20092;-71
2021/05/06 09:54:04;;;;;;;6.25;3.60;;;4.90;99.90;;;;;;5013086;28;20489;-71
2021/05/06 09:56:30;;;;;;;5.13;3.33;;;5.10;99.90;;;;;;4995646;28;20113;-71
2021/05/06 09:58:57;;;;;;;6.82;4.05;;;4.90;99.90;;;;;;5016764;28;20097;-71
2021/05/06 10:01:30;;;;;;;7.60;5.10;;;5.10;99.90;;;;;;5012333;28;20029;-71
2021/05/06 10:03:57;;;;;;;9.32;4.53;;;5.10;99.90;;;;;;5027379;28;20021;-72
2021/05/06 10:06:23;;;;;;;7.00;4.93;;;5.20;99.90;;;;;;5017269;28;20026;-70
2021/05/06 10:08:49;;;;;;;5.78;3.80;;;5.00;99.90;;;;;;5006496;28;20065;-71
2021/05/06 10:11:16;;;;;;;11.35;7.63;;;5.10;99.90;;;;;;5028786;28;20065;-70
2021/05/06 10:13:44;;;;;;;6.03;4.50;;;5.20;99.90;;;;;;5025670;28;20022;-71
2021/05/06 10:16:12;;;;;;;5.97;5.10;;;4.90;99.90;;;;;;5028012;28;20028;-71
2021/05/06 10:18:40;;;;;;;7.07;4.30;;;4.80;99.90;;;;;;4997133;28;20018;-71
2021/05/06 10:21:10;;;;;;;5.70;4.35;;;4.90;99.90;;;;;;5026253;28;20044;-71
2021/05/06 10:23:37;;;;;;;4.90;4.00;;;4.80;99.90;;;;;;5006242;28;20377;-71
2021/05/06 10:26:03;;;;;;;7.28;5.13;;;4.90;99.90;;;;;;5024388;28;20065;-71
2021/05/06 10:28:34;;;;;;;6.57;4.78;;;4.90;99.90;;;;;;5021943;28;20029;-70
2021/05/06 10:31:04;;;;;;;6.38;4.40;;;4.80;99.90;;;;;;5024148;28;20025;-71
2021/05/06 10:33:31;;;;;;;5.85;3.97;;;5.00;99.90;;;;;;5023472;28;20422;-71
2021/05/06 10:35:58;;;;;;;10.68;6.25;;;4.90;99.90;;;;;;5023955;28;20021;-71
2021/05/06 10:38:29;;;;;;;10.95;7.05;;;5.00;99.90;;;;;;5022117;28;20022;-71
2021/05/06 10:40:55;;;;;;;14.60;7.28;;;4.90;99.90;;;;;;5023247;28;20550;-71
2021/05/06 10:43:29;;;;;;;7.47;4.93;;;4.90;99.90;;;;;;5022458;28;20022;-71
2021/05/06 10:46:02;;;;;;;8.43;6.35;;;4.90;99.90;;;;;;5025554;28;20599;-71
2021/05/06 10:49:00;;;;;;;13.85;11.23;;;5.00;99.90;;;;;;5023091;28;20026;-70
2021/05/06 10:51:49;;;;;;;7.53;6.10;;;5.20;99.90;;;;;;5001166;28;20036;-70
2021/05/06 10:54:30;;;;;;;8.18;5.40;;;5.50;99.90;;;;;;5021833;28;20484;-71
2021/05/06 10:57:11;;;;;;;7.40;5.28;;;6.00;99.90;;;;;;5017111;28;20022;-71
2021/05/06 10:59:41;;;;;;;6.20;4.45;;;5.60;99.90;;;;;;4992095;28;20029;-70
2021/05/06 11:02:08;;;;;;;6.72;3.92;;;5.50;99.90;;;;;;5018772;28;20072;-70
2021/05/06 11:04:41;;;;;;;5.18;4.00;;;5.60;99.90;;;;;;5028244;28;20051;-70
2021/05/06 11:07:15;;;;;;;8.05;4.55;;;5.50;99.90;;;;;;5011330;28;20065;-70
2021/05/06 11:09:46;;;;;;;9.13;4.95;;;5.50;99.90;;;;;;5023785;28;20030;-70
2021/05/06 11:12:14;;;;;;;5.20;4.68;;;5.50;99.90;;;;;;5022245;28;20030;-70
2021/05/06 11:15:02;;;;;;;6.55;4.40;;;5.60;99.90;;;;;;5023414;28;20034;-70
2021/05/06 11:17:40;;;;;;;8.13;5.07;;;5.90;99.90;;;;;;5021603;28;20550;-71
2021/05/06 11:20:12;;;;;;;6.22;4.32;;;6.20;99.90;;;;;;5002691;28;20045;-70
2021/05/06 11:22:44;;;;;;;5.68;4.20;;;6.50;99.90;;;;;;5006164;28;20093;-71
2021/05/06 11:27:54;;;;;;;7.07;5.45;;;6.40;99.90;;;;;;5023657;28;20034;-71
2021/05/06 11:30:31;;;;;;;7.65;4.65;;;6.20;99.90;;;;;;5013660;28;20026;-71
2021/05/06 11:33:19;;;;;;;5.95;5.03;;;6.10;99.90;;;;;;5024424;28;20045;-70
2021/05/06 11:36:20;;;;;;;5.35;3.80;;;6.40;99.90;;;;;;5012463;28;20113;-71
2021/05/06 11:38:50;;;;;;;4.97;4.18;;;6.60;99.90;;;;;;4991645;28;20072;-71
2021/05/06 11:41:24;;;;;;;5.65;4.15;;;7.20;99.90;;;;;;5026926;28;20029;-70
2021/05/06 11:43:52;;;;;;;6.22;4.10;;;7.30;99.90;;;;;;5029314;28;20029;-70
2021/05/06 11:46:26;;;;;;;5.80;3.60;;;6.90;99.90;;;;;;5005858;28;20080;-71
2021/05/06 11:48:57;;;;;;;4.82;4.00;;;6.80;99.90;;;;;;5023355;28;20022;-71
2021/05/06 11:51:26;;;;;;;5.60;4.45;;;6.70;99.90;;;;;;5021389;28;20036;-71
2021/05/06 11:54:17;;;;;;;5.93;4.10;;;6.90;99.90;;;;;;5022496;28;20064;-70
2021/05/06 11:56:55;;;;;;;4.53;3.90;;;6.70;99.90;;;;;;5007789;28;20045;-70
2021/05/06 11:59:26;;;;;;;5.72;4.22;;;6.70;99.90;;;;;;5013160;28;20060;-71
2021/05/06 12:01:53;;;;;;;4.07;3.67;;;7.00;99.90;;;;;;5031534;28;20476;-71
2021/05/06 12:04:24;;;;;;;4.28;3.85;;;7.50;99.90;;;;;;5031400;28;20383;-71
2021/05/06 12:06:50;;;;;;;6.15;3.80;;;8.30;99.90;;;;;;5032652;28;20018;-70
2021/05/06 12:09:28;;;;;;;4.65;3.88;;;8.40;99.90;;;;;;5017607;28;20025;-71
2021/05/06 12:11:54;;;;;;;4.47;3.72;;;8.70;99.90;;;;;;5034895;28;20041;-71
2021/05/06 12:14:30;;;;;;;3.25;2.60;;;8.10;99.90;;;;;;5034762;28;20025;-70
2021/05/06 12:16:56;;;;;;;2.95;2.40;;;9.00;99.90;;;;;;5034789;28;20029;-70
2021/05/06 12:19:21;;;;;;;4.07;2.70;;;8.90;99.90;;;;;;5007511;28;20022;-71
2021/05/06 12:21:53;;;;;;;3.90;3.50;;;8.90;99.90;;;;;;5008716;28;20412;-71
2021/05/06 12:24:32;;;;;;;4.05;3.30;;;8.60;99.90;;;;;;5008378;28;20022;-71
2021/05/06 12:27:13;;;;;;;4.47;3.30;;;8.10;99.90;;;;;;5017503;28;20021;-71
2021/05/06 12:29:39;;;;;;;5.10;3.08;;;8.10;99.90;;;;;;5009884;28;20506;-73
2021/05/06 12:32:04;;;;;;;4.65;2.88;;;8.40;99.90;;;;;;5014799;28;20057;-70
2021/05/06 12:34:34;;;;;;;4.13;3.67;;;8.40;99.90;;;;;;5014527;28;20487;-70
2021/05/06 12:37:01;;;;;;;3.85;3.38;;;8.60;99.90;;;;;;5014918;28;20101;-70
2021/05/06 12:39:28;;;;;;;3.92;3.22;;;8.10;99.90;;;;;;5014840;28;20029;-70
2021/05/06 12:41:59;;;;;;;5.30;3.78;;;8.50;99.90;;;;;;5014586;28;20358;-70
2021/05/06 12:44:38;;;;;;;4.55;3.85;;;8.60;99.90;;;;;;4996938;28;20694;-70
2021/05/06 12:47:40;;;;;;;4.53;4.13;;;8.80;99.90;;;;;;5025808;28;20037;-70
2021/05/06 12:50:11;;;;;;;4.53;3.70;;;10.20;99.90;;;;;;4997767;28;20058;-71
2021/05/06 12:52:38;;;;;;;5.05;3.45;;;10.70;99.90;;;;;;5010832;28;20017;-70
2021/05/06 12:55:16;;;;;;;8.23;4.57;;;10.90;99.90;;;;;;5033915;28;20026;-72
2021/05/06 12:57:42;;;;;;;4.88;3.97;;;10.00;99.90;;;;;;5016193;28;20026;-72
2021/05/06 13:00:21;;;;;;;6.88;4.63;;;10.00;99.90;;;;;;5014326;28;20026;-72
2021/05/06 13:02:46;;;;;;;4.95;3.70;;;9.50;99.90;;;;;;5015447;28;20029;-71
2021/05/06 13:05:33;;;;;;;4.95;4.45;;;9.60;99.90;;;;;;5013959;28;20026;-72
2021/05/06 13:07:59;;;;;;;8.48;4.97;;;8.70;99.90;;;;;;5014091;28;20029;-72
2021/05/06 13:10:28;;;;;;;5.85;4.50;;;8.20;99.90;;;;;;5014041;28;20431;-72
2021/05/06 13:12:54;;;;;;;5.40;4.22;;;8.60;99.90;;;;;;5014255;28;20053;-72
2021/05/06 13:15:20;;;;;;;7.18;5.13;;;8.90;99.90;;;;;;5013952;28;20476;-72
2021/05/06 13:17:45;;;;;;;19.48;5.47;;;9.10;99.90;;;;;;5014142;28;20052;-72
2021/05/06 13:20:15;;;;;;;6.50;4.43;;;8.60;99.90;;;;;;5014909;28;20029;-70
2021/05/06 13:22:41;;;;;;;7.38;3.90;;;8.60;99.90;;;;;;5005646;28;20030;-72
2021/05/06 13:25:07;;;;;;;5.82;4.07;;;8.40;99.90;;;;;;5027146;28;20091;-69
2021/05/06 13:27:44;;;;;;;7.10;4.65;;;8.60;99.90;;;;;;5024556;28;20025;-71
2021/05/06 13:30:10;;;;;;;5.38;4.88;;;8.50;99.90;;;;;;5020425;28;20029;-70
2021/05/06 13:32:39;;;;;;;6.90;4.82;;;8.50;99.90;;;;;;5021595;28;20037;-70
2021/05/06 13:35:06;;;;;;;7.35;5.10;;;8.50;99.90;;;;;;5032485;28;20072;-70
2021/05/06 13:37:44;;;;;;;6.32;5.18;;;8.50;99.90;;;;;;5033447;28;20017;-70
2021/05/06 13:40:10;;;;;;;7.13;5.18;;;8.60;99.90;;;;;;5022096;28;20021;-70
2021/05/06 13:42:37;;;;;;;6.55;5.53;;;8.60;99.90;;;;;;5032850;28;20391;-70
2021/05/06 13:45:05;;;;;;;9.57;5.90;;;8.30;99.90;;;;;;5032763;28;20450;-70
2021/05/06 13:47:30;;;;;;;6.13;5.53;;;8.00;99.90;;;;;;5032966;28;20053;-70
2021/05/06 13:49:56;;;;;;;6.72;6.03;;;8.00;99.90;;;;;;5024939;28;20135;-70
2021/05/06 13:52:24;;;;;;;9.90;7.45;;;8.10;99.90;;;;;;5013121;28;20041;-70
2021/05/06 13:54:51;;;;;;;8.20;6.90;;;7.90;99.90;;;;;;4995418;28;20026;-72
2021/05/06 13:57:17;;;;;;;7.30;6.10;;;7.70;99.90;;;;;;5012830;28;20021;-71
2021/05/06 13:59:43;;;;;;;7.95;5.60;;;7.70;99.90;;;;;;5012499;28;20028;-71
2021/05/06 14:02:08;;;;;;;6.70;6.10;;;7.80;99.90;;;;;;5014562;28;20672;-72
2021/05/06 14:04:34;;;;;;;9.48;7.63;;;8.00;99.90;;;;;;5013638;28;20103;-70
2021/05/06 14:07:00;;;;;;;10.15;8.07;;;7.80;99.90;;;;;;5014718;28;20022;-71
2021/05/06 14:09:25;;;;;;;9.10;8.15;;;7.80;99.90;;;;;;5012744;28;20096;-71
2021/05/06 14:11:51;;;;;;;9.88;8.50;;;7.80;99.90;;;;;;5018702;28;20071;-70
2021/05/06 14:14:18;;;;;;;14.85;10.40;;;7.80;99.90;;;;;;5014727;28;20025;-69
2021/05/06 14:16:44;;;;;;;11.80;9.32;;;7.80;99.90;;;;;;5014034;28;20026;-71
2021/05/06 14:19:12;;;;;;;10.18;7.88;;;7.50;99.90;;;;;;5016638;28;20025;-71
2021/05/06 14:21:39;;;;;;;11.70;8.07;;;7.40;99.90;;;;;;5024620;28;20022;-70
2021/05/06 14:24:06;;;;;;;10.68;8.20;;;7.50;99.90;;;;;;5015939;28;20022;-70
2021/05/06 14:26:32;;;;;;;11.15;9.95;;;7.70;99.90;;;;;;5015308;28;20030;-69
2021/05/06 14:28:58;;;;;;;12.02;10.15;;;7.90;99.90;;;;;;4994836;28;20392;-69
2021/05/06 14:31:23;;;;;;;15.20;10.82;;;7.90;99.90;;;;;;5013765;28;20026;-70
2021/05/06 14:33:49;;;;;;;15.98;12.93;;;7.80;99.90;;;;;;5016645;28;20109;-69
2021/05/06 14:36:16;;;;;;;14.50;10.98;;;7.70;99.90;;;;;;5011380;28;20581;-71
2021/05/06 14:38:42;;;;;;;12.80;10.32;;;7.80;99.90;;;;;;5021534;28;20022;-70
2021/05/06 14:41:09;;;;;;;13.48;11.55;;;8.10;99.90;;;;;;5014913;28;20029;-69
2021/05/06 14:43:35;;;;;;;12.18;9.70;;;8.00;99.90;;;;;;5026991;28;20445;-70
2021/05/06 14:46:01;;;;;;;12.43;10.55;;;8.10;99.90;;;;;;5013167;28;20109;-70
2021/05/06 14:48:27;;;;;;;14.57;11.27;;;8.30;99.90;;;;;;5021380;28;20101;-70
2021/05/06 14:50:53;;;;;;;14.02;10.45;;;8.40;99.90;;;;;;4998953;28;20025;-70
2021/05/06 14:53:19;;;;;;;12.55;10.20;;;8.50;99.90;;;;;;4998191;28;20026;-70
2021/05/06 14:55:45;;;;;;;12.48;9.27;;;8.50;99.90;;;;;;5016008;28;20033;-70
2021/05/06 14:58:10;;;;;;;12.95;9.73;;;8.40;99.90;;;;;;5030703;28;20086;-70
2021/05/06 15:00:36;;;;;;;10.73;9.40;;;8.40;99.90;;;;;;5014056;28;20029;-71
2021/05/06 15:03:02;;;;;;;11.93;9.73;;;8.30;99.90;;;;;;5013891;28;20033;-71
2021/05/06 15:05:28;;;;;;;14.30;10.40;;;8.20;99.90;;;;;;5012972;28;20088;-71
2021/05/06 15:07:54;;;;;;;13.27;11.13;;;8.00;99.90;;;;;;5012196;28;20052;-71
2021/05/06 15:10:21;;;;;;;13.57;11.18;;;7.80;99.90;;;;;;4995124;28;20116;-71
2021/05/06 15:12:47;;;;;;;13.32;11.90;;;7.80;99.90;;;;;;5011832;28;20034;-71
2021/05/06 15:15:14;;;;;;;15.75;11.25;;;7.90;99.90;;;;;;5011615;28;20029;-70
2021/05/06 15:17:40;;;;;;;13.60;10.45;;;8.00;99.90;;;;;;5013061;28;20088;-72
2021/05/06 15:20:07;;;;;;;13.95;11.68;;;8.00;99.90;;;;;;5024697;28;20108;-72
2021/05/06 15:22:33;;;;;;;16.00;11.80;;;7.90;99.90;;;;;;4994618;28;20118;-71
2021/05/06 15:24:58;;;;;;;14.38;10.80;;;7.90;99.90;;;;;;5012220;28;20025;-71
2021/05/06 15:27:24;;;;;;;12.30;10.93;;;7.90;99.90;;;;;;5009319;28;20026;-71
2021/05/06 15:29:49;;;;;;;13.45;10.75;;;8.00;99.90;;;;;;5020905;28;20022;-71
2021/05/06 15:32:15;;;;;;;14.77;11.25;;;7.90;99.90;;;;;;5012241;28;20091;-71
2021/05/06 15:34:41;;;;;;;14.13;11.98;;;7.90;99.90;;;;;;4995475;28;20030;-70
2021/05/06 15:37:08;;;;;;;12.07;10.23;;;7.80;99.90;;;;;;5012322;28;20026;-71
2021/05/06 15:39:35;;;;;;;13.00;11.05;;;7.80;99.90;;;;;;5017228;28;20030;-71
2021/05/06 15:42:00;;;;;;;11.95;10.10;;;8.00;99.90;;;;;;5013653;28;20097;-72
2021/05/06 15:44:26;;;;;;;15.57;11.98;;;8.20;99.90;;;;;;5020261;28;20414;-71
2021/05/06 15:46:58;;;;;;;13.13;10.70;;;8.20;99.90;;;;;;5034187;28;20031;-71
2021/05/06 15:49:32;;;;;;;15.30;11.52;;;8.10;99.90;;;;;;5030133;28;20014;-72
2021/05/06 15:51:57;;;;;;;14.48;11.20;;;8.10;99.90;;;;;;5013370;28;20029;-71
2021/05/06 15:54:23;;;;;;;16.00;12.93;;;8.20;99.90;;;;;;5012540;28;20552;-71
2021/05/06 15:56:49;;;;;;;14.32;11.93;;;8.20;99.90;;;;;;5002928;28;20503;-71
2021/05/06 15:59:14;;;;;;;14.20;12.10;;;8.30;99.90;;;;;;5006784;28;20664;-71
2021/05/06 16:01:40;;;;;;;16.65;12.93;;;8.30;99.90;;;;;;5022291;28;20032;-72
2021/05/06 16:04:08;;;;;;;15.13;11.95;;;8.10;99.90;;;;;;5025006;28;20018;-71
2021/05/06 16:06:34;;;;;;;15.32;11.38;;;8.30;99.90;;;;;;5026427;28;20052;-71